Portada
METAR-TAF:

METAR-TAF

Aeroports :

El Caire, Egipte

Aeroport Internacional del Caire

latitud: 30-08N, longitud: 031-24E, altitud: 64 m

Observació

L'informe es va fer fa 25 minuts, a les 19:30 UTC
Vent 8 kt del Est
Temperatura 18°C
Humitat 56%
Pressió 1015 hPa
Visibilitat: 6000 m

METAR: HECA 191930Z 08008KT 6000 NSC 18/09 Q1015 NOSIG

Hora: 21:55 (19:55 UTC)

Pronòstic

L'informe es va fer fa 2 hores i 55 minuts, a les 17:00 UTC
Pronòstic vàlid del 19 a les 18 UTC al 20 a les 24 UTC
Vent 9 kt del Nord
Visibilitat: 6000 m
Cel ennuvolat a una alçada de 5000 ft
Temporalment
l' 19 a les 18 UTC al 20 a les 06 UTC
Visibilitat: 4000 m
calitja
Probabilitat 40% :
Temporalment
l' 20 a les 03 UTC al 20 a les 06 UTC
Vent 3 kt amb direcció variable

TAF: HECA 191700Z 1918/2024 35009KT 6000 BKN050 TEMPO 1918/2006 4000 HZ PROB40 TEMPO 2003/2006 VRB03KT 3000BR NSC

Observacions i pronòstics meteorològics de més de 4000 aeroports (METAR i TAF).

Les estacions disponibles són els punts grocs i vermells al mapa.

Posi el ratolí al punt desitjat per veure el nom de l'estació.

Feu clic per veure les observacions i els pronòstics meteorològics.

Per canviar el mapa: feu clic els botons verds amb una creu de color negre per apropar; al botó verd amb un guió per allunyar la imatge; o en les fletxes verdes per a mapes adjacents.


METAR-TAF: